Berit — ZDHX2 — position and weather

sailwx.info

Track history (hours):
 
Tides and Currents Weather Stations Pressure Air Temp Water Temp Dewpoint Dewpoint Depression Visibility Wind Speed Wind Dir Waves Ship Positions

Berit

Last reported at 2014-Dec-22 13:08 UTC. Time now 2014-Dec-26 19:14 UTC.
Position N 63°15' E 007°31'.

Length 83 m; draft 4.6 m.

Type: Cargo ship. MMSI: 236386000.

Date/timePositionNaut miles runAvg speedWind from/ knotsBaromVisibWave heightAir tempDewpointWater temp
2014-Dec-22 13:08N 63°15' E 007°31'5 8.0
2014-Dec-22 12:32N 63°14' E 007°41'11 3.2
2014-Dec-22 09:06N 63°03' E 007°39'44 1.3
2014-Dec-20 23:17N 62°50' E 006°07'225 6.9
2014-Dec-19 14:30N 59°08' E 004°57'5 5.3
2014-Dec-19 13:34N 59°06' E 005°06'5 4.7
2014-Dec-19 12:33N 59°06' E 005°16'5 4.9
2014-Dec-19 11:33N 59°07' E 005°25'6 5.7
2014-Dec-19 10:33N 59°04' E 005°34'8 7.7
2014-Dec-19 09:33N 58°60' E 005°47'3 2.8
2014-Dec-19 08:28N 58°57' E 005°45'0 0.0
2014-Dec-19 07:31N 58°57' E 005°45'0 0.0
2014-Dec-19 06:31N 58°57' E 005°45'0 0.0
2014-Dec-19 05:31N 58°57' E 005°45'0 0.0
2014-Dec-19 04:31N 58°57' E 005°45'0 0.0
2014-Dec-19 03:31N 58°57' E 005°45'0 0.0
2014-Dec-19 02:31N 58°57' E 005°45'0 0.0
2014-Dec-19 01:31N 58°57' E 005°45'0 0.0
2014-Dec-19 00:31N 58°57' E 005°45'0 0.0
2014-Dec-18 23:31N 58°57' E 005°45'0 0.0
2014-Dec-18 22:31N 58°57' E 005°45'0 0.0
2014-Dec-18 21:31N 58°57' E 005°45'0 0.0
2014-Dec-18 20:31N 58°57' E 005°45'0 0.0
2014-Dec-18 19:31N 58°57' E 005°45'0 0.0
2014-Dec-18 18:31N 58°57' E 005°45'0 0.0
2014-Dec-18 17:31N 58°57' E 005°45'0 0.0
2014-Dec-18 16:31N 58°57' E 005°45'0 0.0
2014-Dec-18 15:31N 58°57' E 005°45'0 0.0
2014-Dec-18 14:31N 58°57' E 005°45'0 0.0
2014-Dec-18 13:31N 58°57' E 005°45'0 0.0
2014-Dec-18 12:31N 58°57' E 005°45'0 0.0
2014-Dec-18 11:31N 58°57' E 005°45'0 0.0
2014-Dec-18 10:31N 58°57' E 005°45'0 0.0
2014-Dec-18 09:31N 58°57' E 005°45'0 0.0
2014-Dec-18 08:31N 58°57' E 005°45'0 0.0
2014-Dec-18 07:34N 58°57' E 005°45'5 5.3
2014-Dec-18 06:33N 59°01' E 005°40'6 6.3
2014-Dec-18 05:33N 58°56' E 005°33'9 8.7
2014-Dec-18 04:33N 58°48' E 005°25'17 8.3
2014-Dec-18 02:32N 58°33' E 005°36'8 8.3
2014-Dec-18 01:33N 58°26' E 005°45'8 7.7
2014-Dec-18 00:34N 58°23' E 005°58'4 3.6
2014-Dec-17 23:33N 58°26' E 005°59'0 0.0
2014-Dec-17 22:33N 58°26' E 005°59'0 0.0
2014-Dec-17 21:33N 58°26' E 005°59'0 0.0
2014-Dec-17 20:33N 58°26' E 005°59'0 0.0
2014-Dec-17 19:33N 58°26' E 005°59'0 0.0
2014-Dec-17 18:33N 58°26' E 005°59'0 0.0
2014-Dec-17 17:33N 58°26' E 005°59'0 0.0
2014-Dec-17 16:33N 58°26' E 005°59'0 0.0
2014-Dec-17 15:33N 58°26' E 005°59'0 0.0
2014-Dec-17 14:33N 58°26' E 005°59'0 0.0
2014-Dec-17 13:33N 58°26' E 005°59'0 0.0
2014-Dec-17 12:33N 58°26' E 005°59'0 0.0
2014-Dec-17 11:33N 58°26' E 005°59'0 0.0
2014-Dec-17 10:33N 58°26' E 005°59'0 0.0
2014-Dec-17 09:33N 58°26' E 005°59'0 0.1
2014-Dec-17 08:33N 58°26' E 005°59'4 4.3
2014-Dec-17 07:33N 58°22' E 006°00'4 4.4
2014-Dec-17 06:33N 58°19' E 006°05'105 6.1
2014-Dec-16 13:32N 56°53' E 007°57'14 0.4
2014-Dec-15 02:24N 56°42' E 008°13'0 0.0
2014-Dec-15 01:33N 56°42' E 008°13'12 1.9
2014-Dec-14 19:31N 56°52' E 008°02'96 7.3
2014-Dec-14 06:17N 58°06' E 006°10'9 8.7
2014-Dec-14 05:16N 58°13' E 005°59'6 8.9
2014-Dec-14 04:34N 58°18' E 005°52'9 9.2
2014-Dec-14 03:33N 58°26' E 005°41'21 9.7
2014-Dec-14 01:23N 58°45' E 005°23'7 8.5
2014-Dec-14 00:33N 58°51' E 005°29'8 8.5
2014-Dec-13 23:33N 58°59' E 005°33'6 6.5
2014-Dec-13 22:33N 59°02' E 005°44'5 5.1
2014-Dec-13 21:32N 58°57' E 005°45'0 0.0
2014-Dec-13 20:32N 58°57' E 005°45'0 0.0
2014-Dec-13 19:32N 58°57' E 005°45'0 0.0
2014-Dec-13 18:32N 58°57' E 005°45'0 0.0
2014-Dec-13 17:32N 58°57' E 005°45'0 0.0
2014-Dec-13 16:32N 58°57' E 005°45'0 0.0
2014-Dec-13 15:32N 58°57' E 005°45'0 0.0
2014-Dec-13 14:32N 58°57' E 005°45'0 0.0
2014-Dec-13 13:32N 58°57' E 005°45'0 0.0
2014-Dec-13 12:32N 58°57' E 005°45'0 0.0
2014-Dec-13 11:32N 58°57' E 005°45'0 0.0
2014-Dec-13 10:32N 58°57' E 005°45'0 0.0
2014-Dec-13 09:32N 58°57' E 005°45'0 0.0
2014-Dec-13 08:32N 58°57' E 005°45'0 0.0
2014-Dec-13 07:32N 58°57' E 005°45'0 0.0
2014-Dec-13 06:32N 58°57' E 005°45'0 0.0
2014-Dec-13 05:32N 58°57' E 005°45'0 0.0
2014-Dec-13 04:32N 58°57' E 005°45'0 0.0
2014-Dec-13 03:32N 58°57' E 005°45'0 0.0
2014-Dec-13 02:32N 58°57' E 005°45'0 0.0
2014-Dec-13 01:32N 58°57' E 005°45'0 0.0
2014-Dec-13 00:32N 58°57' E 005°45'0 0.0
2014-Dec-12 23:32N 58°57' E 005°45'0 0.0
2014-Dec-12 22:32N 58°57' E 005°45'0 0.0
2014-Dec-12 21:32N 58°57' E 005°45'0 0.0
2014-Dec-12 20:32N 58°57' E 005°45'0 0.0
2014-Dec-12 19:32N 58°57' E 005°45'0 0.0
2014-Dec-12 18:32N 58°57' E 005°45'0 0.0
2014-Dec-12 17:32N 58°57' E 005°45'0 0.0
2014-Dec-12 16:32N 58°57' E 005°45'0 0.0
2014-Dec-12 15:32N 58°57' E 005°45'4 4.3
2014-Dec-12 14:34N 59°01' E 005°44'6 6.1
2014-Dec-12 13:34N 58°59' E 005°33'  
Track history (hours):
 
Tides and Currents Weather Stations Pressure Air Temp Water Temp Dewpoint Dewpoint Depression Visibility Wind Speed Wind Dir Waves Ship Positions

Berit

Last reported at 2014-Dec-22 13:08 UTC. Time now 2014-Dec-26 19:14 UTC.
Position N 63°15' E 007°31'.

Length 83 m; draft 4.6 m.

Type: Cargo ship. MMSI: 236386000.

Date/timePositionNaut miles runAvg speedWind from/ knotsBaromVisibWave heightAir tempDewpointWater temp
2014-Dec-22 13:08N 63°15' E 007°31'5 8.0
2014-Dec-22 12:32N 63°14' E 007°41'11 3.2
2014-Dec-22 09:06N 63°03' E 007°39'44 1.3
2014-Dec-20 23:17N 62°50' E 006°07'225 6.9
2014-Dec-19 14:30N 59°08' E 004°57'5 5.3
2014-Dec-19 13:34N 59°06' E 005°06'5 4.7
2014-Dec-19 12:33N 59°06' E 005°16'5 4.9
2014-Dec-19 11:33N 59°07' E 005°25'6 5.7
2014-Dec-19 10:33N 59°04' E 005°34'8 7.7
2014-Dec-19 09:33N 58°60' E 005°47'3 2.8
2014-Dec-19 08:28N 58°57' E 005°45'0 0.0
2014-Dec-19 07:31N 58°57' E 005°45'0 0.0
2014-Dec-19 06:31N 58°57' E 005°45'0 0.0
2014-Dec-19 05:31N 58°57' E 005°45'0 0.0
2014-Dec-19 04:31N 58°57' E 005°45'0 0.0
2014-Dec-19 03:31N 58°57' E 005°45'0 0.0
2014-Dec-19 02:31N 58°57' E 005°45'0 0.0
2014-Dec-19 01:31N 58°57' E 005°45'0 0.0
2014-Dec-19 00:31N 58°57' E 005°45'0 0.0
2014-Dec-18 23:31N 58°57' E 005°45'0 0.0
2014-Dec-18 22:31N 58°57' E 005°45'0 0.0
2014-Dec-18 21:31N 58°57' E 005°45'0 0.0
2014-Dec-18 20:31N 58°57' E 005°45'0 0.0
2014-Dec-18 19:31N 58°57' E 005°45'0 0.0
2014-Dec-18 18:31N 58°57' E 005°45'0 0.0
2014-Dec-18 17:31N 58°57' E 005°45'0 0.0
2014-Dec-18 16:31N 58°57' E 005°45'0 0.0
2014-Dec-18 15:31N 58°57' E 005°45'0 0.0
2014-Dec-18 14:31N 58°57' E 005°45'0 0.0
2014-Dec-18 13:31N 58°57' E 005°45'0 0.0
2014-Dec-18 12:31N 58°57' E 005°45'0 0.0
2014-Dec-18 11:31N 58°57' E 005°45'0 0.0
2014-Dec-18 10:31N 58°57' E 005°45'0 0.0
2014-Dec-18 09:31N 58°57' E 005°45'0 0.0
2014-Dec-18 08:31N 58°57' E 005°45'0 0.0
2014-Dec-18 07:34N 58°57' E 005°45'5 5.3
2014-Dec-18 06:33N 59°01' E 005°40'6 6.3
2014-Dec-18 05:33N 58°56' E 005°33'9 8.7
2014-Dec-18 04:33N 58°48' E 005°25'17 8.3
2014-Dec-18 02:32N 58°33' E 005°36'8 8.3
2014-Dec-18 01:33N 58°26' E 005°45'8 7.7
2014-Dec-18 00:34N 58°23' E 005°58'4 3.6
2014-Dec-17 23:33N 58°26' E 005°59'0 0.0
2014-Dec-17 22:33N 58°26' E 005°59'0 0.0
2014-Dec-17 21:33N 58°26' E 005°59'0 0.0
2014-Dec-17 20:33N 58°26' E 005°59'0 0.0
2014-Dec-17 19:33N 58°26' E 005°59'0 0.0
2014-Dec-17 18:33N 58°26' E 005°59'0 0.0
2014-Dec-17 17:33N 58°26' E 005°59'0 0.0
2014-Dec-17 16:33N 58°26' E 005°59'0 0.0
2014-Dec-17 15:33N 58°26' E 005°59'0 0.0
2014-Dec-17 14:33N 58°26' E 005°59'0 0.0
2014-Dec-17 13:33N 58°26' E 005°59'0 0.0
2014-Dec-17 12:33N 58°26' E 005°59'0 0.0
2014-Dec-17 11:33N 58°26' E 005°59'0 0.0
2014-Dec-17 10:33N 58°26' E 005°59'0 0.0
2014-Dec-17 09:33N 58°26' E 005°59'0 0.1
2014-Dec-17 08:33N 58°26' E 005°59'4 4.3
2014-Dec-17 07:33N 58°22' E 006°00'4 4.4
2014-Dec-17 06:33N 58°19' E 006°05'105 6.1
2014-Dec-16 13:32N 56°53' E 007°57'14 0.4
2014-Dec-15 02:24N 56°42' E 008°13'0 0.0
2014-Dec-15 01:33N 56°42' E 008°13'12 1.9
2014-Dec-14 19:31N 56°52' E 008°02'96 7.3
2014-Dec-14 06:17N 58°06' E 006°10'9 8.7
2014-Dec-14 05:16N 58°13' E 005°59'6 8.9
2014-Dec-14 04:34N 58°18' E 005°52'9 9.2
2014-Dec-14 03:33N 58°26' E 005°41'21 9.7
2014-Dec-14 01:23N 58°45' E 005°23'7 8.5
2014-Dec-14 00:33N 58°51' E 005°29'8 8.5
2014-Dec-13 23:33N 58°59' E 005°33'6 6.5
2014-Dec-13 22:33N 59°02' E 005°44'5 5.1
2014-Dec-13 21:32N 58°57' E 005°45'0 0.0
2014-Dec-13 20:32N 58°57' E 005°45'0 0.0
2014-Dec-13 19:32N 58°57' E 005°45'0 0.0
2014-Dec-13 18:32N 58°57' E 005°45'0 0.0
2014-Dec-13 17:32N 58°57' E 005°45'0 0.0
2014-Dec-13 16:32N 58°57' E 005°45'0 0.0
2014-Dec-13 15:32N 58°57' E 005°45'0 0.0
2014-Dec-13 14:32N 58°57' E 005°45'0 0.0
2014-Dec-13 13:32N 58°57' E 005°45'0 0.0
2014-Dec-13 12:32N 58°57' E 005°45'0 0.0
2014-Dec-13 11:32N 58°57' E 005°45'0 0.0
2014-Dec-13 10:32N 58°57' E 005°45'0 0.0
2014-Dec-13 09:32N 58°57' E 005°45'0 0.0
2014-Dec-13 08:32N 58°57' E 005°45'0 0.0
2014-Dec-13 07:32N 58°57' E 005°45'0 0.0
2014-Dec-13 06:32N 58°57' E 005°45'0 0.0
2014-Dec-13 05:32N 58°57' E 005°45'0 0.0
2014-Dec-13 04:32N 58°57' E 005°45'0 0.0
2014-Dec-13 03:32N 58°57' E 005°45'0 0.0
2014-Dec-13 02:32N 58°57' E 005°45'0 0.0
2014-Dec-13 01:32N 58°57' E 005°45'0 0.0
2014-Dec-13 00:32N 58°57' E 005°45'0 0.0
2014-Dec-12 23:32N 58°57' E 005°45'0 0.0
2014-Dec-12 22:32N 58°57' E 005°45'0 0.0
2014-Dec-12 21:32N 58°57' E 005°45'0 0.0
2014-Dec-12 20:32N 58°57' E 005°45'0 0.0
2014-Dec-12 19:32N 58°57' E 005°45'0 0.0
2014-Dec-12 18:32N 58°57' E 005°45'0 0.0
2014-Dec-12 17:32N 58°57' E 005°45'0 0.0
2014-Dec-12 16:32N 58°57' E 005°45'0 0.0
2014-Dec-12 15:32N 58°57' E 005°45'4 4.3
2014-Dec-12 14:34N 59°01' E 005°44'6 6.1
2014-Dec-12 13:34N 58°59' E 005°33'  

Dump ship's entire track history